createdAt,value
2022-11-24T00:04:26.573Z,100179.97
2022-11-24T00:09:28.043Z,100181.75
2022-11-24T00:14:29.461Z,100174.91
2022-11-24T00:19:30.899Z,100180.13
2022-11-24T00:24:32.748Z,100176.66
2022-11-24T00:29:34.357Z,100176.72
2022-11-24T00:34:36.105Z,100172.31
2022-11-24T00:39:37.677Z,100180.97
2022-11-24T00:44:39.106Z,100186.97
2022-11-24T00:49:40.532Z,100185.31
2022-11-24T00:54:41.975Z,100192.25
2022-11-24T00:59:43.407Z,100198.25
2022-11-24T01:04:44.842Z,100199.84
2022-11-24T01:09:46.267Z,100202.59
2022-11-24T01:14:47.714Z,100201.63
2022-11-24T01:19:49.217Z,100211.09
2022-11-24T01:24:50.656Z,100211.13
2022-11-24T01:29:52.077Z,100211.06
2022-11-24T01:34:53.623Z,100210.09
2022-11-24T01:39:55.169Z,100212.69
2022-11-24T01:45:37.000Z,100223.88
2022-11-24T01:50:38.901Z,100216.13
2022-11-24T01:55:41.155Z,100221.31
2022-11-24T02:00:44.672Z,100227.31
2022-11-24T02:05:48.205Z,100230.66
2022-11-24T02:10:49.689Z,100239.25
2022-11-24T02:15:52.917Z,100239.28
2022-11-24T02:20:55.535Z,100240.97
2022-11-24T02:26:16.299Z,100255.63
2022-11-24T02:31:18.059Z,100261.66
2022-11-24T02:36:19.534Z,100258.09
2022-11-24T02:41:25.399Z,100261.47
2022-11-24T02:46:27.001Z,100269.31
2022-11-24T02:51:29.552Z,100279.56
2022-11-24T02:56:30.997Z,100277.03
2022-11-24T03:01:32.488Z,100279.66
2022-11-24T03:06:33.972Z,100286.47
2022-11-24T03:11:35.508Z,100282.22
2022-11-24T03:16:37.056Z,100284.72
2022-11-24T03:21:38.522Z,100287.28
2022-11-24T03:26:40.229Z,100289.69
2022-11-24T03:31:41.852Z,100293.25
2022-11-24T03:36:43.411Z,100288.88
2022-11-24T03:41:44.867Z,100288.00
2022-11-24T03:46:46.361Z,100295.69
2022-11-24T03:51:47.825Z,100318.22
2022-11-24T03:56:49.449Z,100310.44
2022-11-24T04:01:51.071Z,100310.44
2022-11-24T04:06:52.531Z,100306.97
2022-11-24T04:12:12.505Z,100320.78
2022-11-24T04:17:13.943Z,100327.50
2022-11-24T04:22:15.383Z,100328.38
2022-11-24T04:27:16.852Z,100343.00
2022-11-24T04:32:18.370Z,100360.19
2022-11-24T04:37:19.859Z,100354.84
2022-11-24T04:42:21.579Z,100350.53
2022-11-24T04:47:24.885Z,100353.78
2022-11-24T04:52:26.589Z,100359.88
2022-11-24T04:57:28.118Z,100359.09
2022-11-24T05:02:29.594Z,100372.81
2022-11-24T05:07:31.118Z,100380.56
2022-11-24T05:12:33.489Z,100388.28
2022-11-24T05:17:38.207Z,100397.81
2022-11-24T05:22:39.654Z,100392.63
2022-11-24T05:27:41.362Z,100397.91
2022-11-24T05:32:42.786Z,100406.47
2022-11-24T05:37:44.854Z,100412.44
2022-11-24T05:42:48.119Z,100415.88
2022-11-24T05:47:51.392Z,100420.19
2022-11-24T05:52:52.828Z,100420.00
2022-11-24T05:58:01.719Z,100427.72
2022-11-24T06:03:03.463Z,100426.88
2022-11-24T06:08:05.416Z,100425.09
2022-11-24T06:13:07.842Z,100425.09
2022-11-24T06:18:09.375Z,100445.75
2022-11-24T06:23:10.879Z,100444.97
2022-11-24T06:28:12.355Z,100457.06
2022-11-24T06:33:14.364Z,100465.75
2022-11-24T06:38:20.113Z,100473.56
2022-11-24T06:43:27.778Z,100479.53
2022-11-24T06:48:30.064Z,100483.06
2022-11-24T06:53:33.044Z,100480.47
2022-11-24T06:58:35.129Z,100486.56
2022-11-24T07:03:36.660Z,100486.47
2022-11-24T07:08:38.203Z,100497.78
2022-11-24T07:13:39.760Z,100505.50
2022-11-24T07:18:42.378Z,100508.81
2022-11-24T07:23:44.135Z,100520.97
2022-11-24T07:28:45.922Z,100522.72
2022-11-24T07:33:52.373Z,100526.94
2022-11-24T07:38:53.879Z,100537.25
2022-11-24T07:43:55.579Z,100549.38
2022-11-24T07:48:57.130Z,100548.38
2022-11-24T07:53:58.761Z,100560.41
2022-11-24T07:59:00.420Z,100561.22
2022-11-24T08:04:02.481Z,100574.88
2022-11-24T08:09:04.072Z,100582.59
2022-11-24T08:14:05.519Z,100583.56
2022-11-24T08:19:07.038Z,100586.91
2022-11-24T08:24:08.786Z,100586.03
2022-11-24T08:29:10.501Z,100596.38
2022-11-24T08:34:11.928Z,100595.34
2022-11-24T08:39:13.436Z,100598.72
2022-11-24T08:44:17.456Z,100600.41
2022-11-24T08:49:19.009Z,100605.47
2022-11-24T08:54:25.596Z,100614.88
2022-11-24T08:59:27.128Z,100619.91
2022-11-24T09:04:28.664Z,100624.16
2022-11-24T09:09:30.173Z,100637.91
2022-11-24T09:14:31.823Z,100642.31
2022-11-24T09:19:33.699Z,100646.53
2022-11-24T09:24:35.338Z,100649.94
2022-11-24T09:29:36.965Z,100661.09
2022-11-24T09:34:38.535Z,100664.50
2022-11-24T09:39:40.047Z,100665.44
2022-11-24T09:45:02.968Z,100665.34
2022-11-24T09:50:11.161Z,100667.09
2022-11-24T09:55:28.240Z,100679.19
2022-11-24T10:00:30.073Z,100692.09
2022-11-24T10:05:36.062Z,100686.03
2022-11-24T10:10:53.542Z,100691.22
2022-11-24T10:16:06.985Z,100704.25
2022-11-24T10:21:37.482Z,100705.00
2022-11-24T10:26:46.937Z,100696.22
2022-11-24T10:31:53.692Z,100694.44
2022-11-24T10:37:22.801Z,100702.91
2022-11-24T10:42:36.910Z,100712.53
2022-11-24T10:47:39.074Z,100702.00
2022-11-24T10:52:44.928Z,100706.31
2022-11-24T10:57:46.455Z,100721.03
2022-11-24T11:02:49.484Z,100724.44
2022-11-24T11:07:51.065Z,100734.69
2022-11-24T11:12:52.610Z,100734.63
2022-11-24T11:17:58.088Z,100729.19
2022-11-24T11:23:13.264Z,100733.47
2022-11-24T11:28:21.680Z,100747.97
2022-11-24T11:38:52.830Z,100754.16
2022-11-24T11:44:08.861Z,100758.53
2022-11-24T11:49:13.252Z,100763.50
2022-11-24T11:54:39.211Z,100776.56
2022-11-24T12:00:05.003Z,100790.44
2022-11-24T12:05:19.941Z,100792.09
2022-11-24T12:10:36.095Z,100787.78
2022-11-24T12:15:42.512Z,100792.78
2022-11-24T12:20:52.826Z,100793.53
2022-11-24T12:26:04.014Z,100794.41
2022-11-24T12:31:07.007Z,100794.41
2022-11-24T12:36:26.800Z,100798.03
2022-11-24T12:41:42.524Z,100810.06
2022-11-24T12:47:09.342Z,100814.59
2022-11-24T12:52:37.444Z,100822.31
2022-11-24T12:57:54.749Z,100831.00
2022-11-24T13:03:27.020Z,100829.44
2022-11-24T13:08:30.916Z,100833.59
2022-11-24T13:14:10.667Z,100845.88
2022-11-24T13:19:19.629Z,100846.84
2022-11-24T13:24:24.837Z,100855.47
2022-11-24T13:29:37.542Z,100849.47
2022-11-24T13:34:39.067Z,100858.00
2022-11-24T13:40:12.121Z,100862.41
2022-11-24T13:45:50.594Z,100880.72
2022-11-24T13:50:53.212Z,100874.72
2022-11-24T13:55:59.257Z,100877.28
2022-11-24T14:01:03.719Z,100878.19
2022-11-24T14:06:05.957Z,100893.81
2022-11-24T14:11:17.096Z,100904.13
2022-11-24T14:16:21.261Z,100906.81
2022-11-24T14:21:30.032Z,100915.44
2022-11-24T14:26:37.638Z,100920.69
2022-11-24T14:31:39.308Z,100929.34
2022-11-24T14:36:41.692Z,100931.94
2022-11-24T14:41:54.508Z,100931.06
2022-11-24T14:47:05.248Z,100935.44
2022-11-24T14:52:14.124Z,100936.31
2022-11-24T14:57:37.773Z,100942.41
2022-11-24T15:02:53.396Z,100945.94
2022-11-24T15:08:03.087Z,100955.53
2022-11-24T15:13:16.211Z,100955.56
2022-11-24T15:18:27.563Z,100952.06
2022-11-24T15:23:36.541Z,100950.34
2022-11-24T15:28:38.486Z,100950.28
2022-11-24T15:33:41.451Z,100962.44
2022-11-24T15:38:42.969Z,100965.97
2022-11-24T15:43:44.438Z,100967.69
2022-11-24T15:48:46.133Z,100958.25
2022-11-24T15:53:54.113Z,100965.19
2022-11-24T15:58:58.884Z,100973.00
2022-11-24T16:04:02.517Z,100978.13
2022-11-24T16:09:03.992Z,100977.28
2022-11-24T16:14:05.543Z,100985.94
2022-11-24T16:19:09.313Z,100987.69
2022-11-24T16:24:10.898Z,100977.31
2022-11-24T16:29:12.401Z,100978.13
2022-11-24T16:34:15.263Z,100987.59
2022-11-24T16:39:16.816Z,100988.47
2022-11-24T16:44:18.239Z,100991.88
2022-11-24T16:49:19.864Z,100993.72
2022-11-24T16:54:21.404Z,100991.00
2022-11-24T16:59:22.894Z,100996.25
2022-11-24T17:04:24.403Z,101003.09
2022-11-24T17:09:25.854Z,101010.94
2022-11-24T17:14:27.410Z,101017.88
2022-11-24T17:19:31.625Z,101014.44
2022-11-24T17:24:33.377Z,101021.34
2022-11-24T17:29:35.059Z,101028.97
2022-11-24T17:34:36.702Z,101030.59
2022-11-24T17:39:38.442Z,101030.72
2022-11-24T17:44:39.949Z,101048.03
2022-11-24T17:49:41.388Z,101050.53
2022-11-24T17:54:56.598Z,101054.91
2022-11-24T17:59:58.165Z,101058.41
2022-11-24T18:04:59.754Z,101062.72
2022-11-24T18:10:01.238Z,101064.50
2022-11-24T18:15:02.822Z,101056.75
2022-11-24T18:20:04.880Z,101059.25
2022-11-24T18:25:06.978Z,101062.78
2022-11-24T18:30:08.776Z,101066.16
2022-11-24T18:35:10.597Z,101066.09
2022-11-24T18:40:12.140Z,101076.34
2022-11-24T18:45:13.679Z,101077.25
2022-11-24T18:50:16.676Z,101075.47
2022-11-24T18:55:18.176Z,101075.53
2022-11-24T19:00:22.257Z,101079.88
2022-11-24T19:05:23.780Z,101086.69
2022-11-24T19:10:25.217Z,101083.34
2022-11-24T19:15:26.741Z,101084.09
2022-11-24T19:20:28.526Z,101086.66
2022-11-24T19:25:30.064Z,101093.59
2022-11-24T19:30:31.613Z,101090.28
2022-11-24T19:35:33.090Z,101097.13
2022-11-24T19:40:34.705Z,101102.47
2022-11-24T19:45:36.197Z,101100.03
2022-11-24T19:50:37.696Z,101097.47
2022-11-24T19:55:39.212Z,101102.84
2022-11-24T20:00:40.701Z,101105.69
2022-11-24T20:05:42.171Z,101111.00
2022-11-24T20:10:44.559Z,101105.06
2022-11-24T20:15:46.095Z,101112.16
2022-11-24T20:20:47.600Z,101122.59
2022-11-24T20:25:49.030Z,101122.75
2022-11-24T20:30:50.543Z,101129.63
2022-11-24T20:35:52.003Z,101133.19
2022-11-24T20:40:53.442Z,101141.91
2022-11-24T20:45:54.954Z,101135.94
2022-11-24T20:50:57.033Z,101135.19
2022-11-24T20:56:06.739Z,101129.19
2022-11-24T21:01:14.381Z,101142.13
2022-11-24T21:06:16.069Z,101142.16
2022-11-24T21:11:19.213Z,101141.41
2022-11-24T21:16:24.881Z,101138.03
2022-11-24T21:21:33.875Z,101143.22
2022-11-24T21:26:36.935Z,101144.13
2022-11-24T21:31:38.817Z,101150.22
2022-11-24T21:36:44.596Z,101158.84
2022-11-24T21:41:46.185Z,101172.69
2022-11-24T21:46:52.717Z,101179.63
2022-11-24T21:51:57.294Z,101188.25
2022-11-24T21:56:58.731Z,101186.50
2022-11-24T22:02:00.385Z,101206.38
2022-11-24T22:07:01.840Z,101200.34
2022-11-24T22:12:03.384Z,101198.59
2022-11-24T22:17:04.861Z,101199.47
2022-11-24T22:22:06.385Z,101206.34
2022-11-24T22:27:07.890Z,101197.72
2022-11-24T22:32:09.435Z,101195.97
2022-11-24T22:37:10.943Z,101199.41
2022-11-24T22:42:12.432Z,101196.81
2022-11-24T22:47:13.920Z,101193.34
2022-11-24T22:52:15.386Z,101189.94
2022-11-24T22:57:16.905Z,101189.06
2022-11-24T23:02:18.399Z,101185.66
2022-11-24T23:07:19.983Z,101179.63
2022-11-24T23:12:21.517Z,101185.69
2022-11-24T23:17:23.010Z,101183.91
2022-11-24T23:22:24.545Z,101180.44
2022-11-24T23:27:25.985Z,101170.06
2022-11-24T23:32:27.527Z,101166.56
2022-11-24T23:37:52.211Z,101164.78
2022-11-24T23:42:50.413Z,101162.19
2022-11-24T23:47:53.390Z,101162.16
2022-11-24T23:52:54.871Z,101157.81
2022-11-24T23:57:56.390Z,101156.94
